createdAt,value
2019-05-14T00:02:22.717Z,19.17
2019-05-14T00:04:51.461Z,22.80
2019-05-14T00:07:22.253Z,23.73
2019-05-14T00:09:51.905Z,26.80
2019-05-14T00:12:22.322Z,23.50
2019-05-14T00:14:51.628Z,23.50
2019-05-14T00:17:21.438Z,26.20
2019-05-14T00:20:05.520Z,24.67
2019-05-14T00:22:21.837Z,27.30
2019-05-14T00:24:52.041Z,22.07
2019-05-14T00:27:21.841Z,27.75
2019-05-14T00:29:51.799Z,28.20
2019-05-14T00:32:21.631Z,30.37
2019-05-14T00:34:51.613Z,26.20
2019-05-14T00:37:21.719Z,29.80
2019-05-14T00:39:52.139Z,30.55
2019-05-14T00:42:21.608Z,32.60
2019-05-14T00:44:56.899Z,27.63
2019-05-14T00:47:21.717Z,27.27
2019-05-14T00:49:51.675Z,23.00
2019-05-14T00:52:22.271Z,27.87
2019-05-14T00:54:52.174Z,23.60
2019-05-14T00:57:21.722Z,26.63
2019-05-14T00:59:52.104Z,26.70
2019-05-14T01:02:21.797Z,26.60
2019-05-14T01:04:51.542Z,27.10
2019-05-14T01:07:21.174Z,22.07
2019-05-14T01:09:52.245Z,23.30
2019-05-14T01:12:21.405Z,19.00
2019-05-14T01:14:52.815Z,17.60
2019-05-14T01:17:22.391Z,19.40
2019-05-14T01:19:51.348Z,19.60
2019-05-14T01:22:21.283Z,22.63
2019-05-14T01:24:52.027Z,20.50
2019-05-14T01:27:21.872Z,21.80
2019-05-14T01:29:51.398Z,22.07
2019-05-14T01:32:22.075Z,22.37
2019-05-14T01:34:52.231Z,19.07
2019-05-14T01:37:21.866Z,20.10
2019-05-14T01:39:52.088Z,18.50
2019-05-14T01:42:21.648Z,17.17
2019-05-14T01:44:52.017Z,18.23
2019-05-14T01:47:21.368Z,18.77
2019-05-14T01:49:51.488Z,20.40
2019-05-14T01:52:21.771Z,16.40
2019-05-14T01:54:51.558Z,17.33
2019-05-14T01:57:21.912Z,17.30
2019-05-14T01:59:51.773Z,16.82
2019-05-14T02:02:22.037Z,14.13
2019-05-14T02:04:51.429Z,18.07
2019-05-14T02:07:22.123Z,18.97
2019-05-14T02:09:51.838Z,18.40
2019-05-14T02:12:22.412Z,19.43
2019-05-14T02:14:51.283Z,17.87
2019-05-14T02:17:21.247Z,21.37
2019-05-14T02:19:51.553Z,19.60
2019-05-14T02:22:21.666Z,15.10
2019-05-14T02:24:52.036Z,19.43
2019-05-14T02:27:21.465Z,18.83
2019-05-14T02:29:51.813Z,18.83
2019-05-14T02:32:20.305Z,18.10
2019-05-14T02:34:49.933Z,20.60
2019-05-14T02:37:19.439Z,14.97
2019-05-14T02:39:50.269Z,19.35
2019-05-14T02:42:19.630Z,17.20
2019-05-14T02:44:49.470Z,16.90
2019-05-14T02:47:19.549Z,16.90
2019-05-14T02:50:09.897Z,14.30
2019-05-14T02:52:40.158Z,16.27
2019-05-14T02:55:09.427Z,16.70
2019-05-14T02:57:39.393Z,16.93
2019-05-14T03:00:10.160Z,16.83
2019-05-14T03:02:40.292Z,14.57
2019-05-14T03:05:09.973Z,14.33
2019-05-14T03:07:39.638Z,15.30
2019-05-14T03:10:10.333Z,16.50
2019-05-14T03:12:39.814Z,16.73
2019-05-14T03:15:09.834Z,16.80
2019-05-14T03:17:40.450Z,17.37
2019-05-14T03:20:10.185Z,16.37
2019-05-14T03:22:54.826Z,20.23
2019-05-14T03:25:10.091Z,16.20
2019-05-14T03:27:40.546Z,17.43
2019-05-14T03:30:12.758Z,16.17
2019-05-14T03:32:42.250Z,14.73
2019-05-14T03:35:13.788Z,15.93
2019-05-14T03:37:40.930Z,14.47
2019-05-14T03:40:29.482Z,20.10
2019-05-14T03:42:59.809Z,17.83
2019-05-14T03:45:30.040Z,13.57
2019-05-14T03:47:59.123Z,14.83
2019-05-14T03:50:29.822Z,15.30
2019-05-14T03:52:59.489Z,15.63
2019-05-14T03:55:29.308Z,14.47
2019-05-14T03:57:59.465Z,14.03
2019-05-14T04:00:50.446Z,14.63
2019-05-14T04:03:20.143Z,15.83
2019-05-14T04:05:50.058Z,14.07
2019-05-14T04:08:21.388Z,16.57
2019-05-14T04:10:54.278Z,14.43
2019-05-14T04:13:23.855Z,13.70
2019-05-14T04:15:59.921Z,14.60
2019-05-14T04:18:29.294Z,15.40
2019-05-14T04:20:59.615Z,14.10
2019-05-14T04:23:30.072Z,14.63
2019-05-14T04:26:00.920Z,18.03
2019-05-14T04:28:32.816Z,14.75
2019-05-14T04:31:02.555Z,16.07
2019-05-14T04:33:34.253Z,15.13
2019-05-14T04:36:03.489Z,15.27
2019-05-14T04:38:32.329Z,13.87
2019-05-14T04:41:01.194Z,14.60
2019-05-14T04:43:30.397Z,15.85
2019-05-14T04:45:59.437Z,13.20
2019-05-14T04:48:37.241Z,14.43
2019-05-14T04:51:00.312Z,13.70
2019-05-14T04:53:30.941Z,17.07
2019-05-14T04:56:00.405Z,16.65
2019-05-14T04:58:29.880Z,13.27
2019-05-14T05:01:00.656Z,15.05
2019-05-14T05:03:31.500Z,14.10
2019-05-14T05:05:59.350Z,18.60
2019-05-14T05:08:30.409Z,17.10
2019-05-14T05:10:59.910Z,16.03
2019-05-14T05:13:29.404Z,18.37
2019-05-14T05:15:59.469Z,19.43
2019-05-14T05:18:29.398Z,17.90
2019-05-14T05:20:58.544Z,15.47
2019-05-14T05:23:28.213Z,15.70
2019-05-14T05:25:58.494Z,13.80
2019-05-14T05:28:28.291Z,15.40
2019-05-14T05:30:58.519Z,15.50
2019-05-14T05:33:29.334Z,15.75
2019-05-14T05:35:59.257Z,20.07
2019-05-14T05:38:29.234Z,16.32
2019-05-14T05:41:00.320Z,20.30
2019-05-14T05:43:28.674Z,16.33
2019-05-14T05:45:59.254Z,20.47
2019-05-14T05:48:28.561Z,15.33
2019-05-14T05:50:59.161Z,16.67
2019-05-14T05:53:28.693Z,17.27
2019-05-14T05:55:59.309Z,18.32
2019-05-14T05:58:29.893Z,20.37
2019-05-14T06:00:59.122Z,17.70
2019-05-14T06:03:30.165Z,15.97
2019-05-14T06:05:59.411Z,16.42
2019-05-14T06:08:28.300Z,13.93
2019-05-14T06:10:59.110Z,13.75
2019-05-14T06:13:28.691Z,12.90
2019-05-14T06:15:59.216Z,11.57
2019-05-14T06:18:28.560Z,11.57
2019-05-14T06:20:58.608Z,15.00
2019-05-14T06:23:28.521Z,12.13
2019-05-14T06:25:59.694Z,12.17
2019-05-14T06:28:32.448Z,12.03
2019-05-14T06:30:58.941Z,11.33
2019-05-14T06:33:28.688Z,13.58
2019-05-14T06:35:59.255Z,9.80
2019-05-14T06:38:29.472Z,11.17
2019-05-14T06:40:59.379Z,10.53
2019-05-14T06:43:29.107Z,13.10
2019-05-14T06:45:58.576Z,9.53
2019-05-14T06:48:34.483Z,9.90
2019-05-14T06:50:59.282Z,10.13
2019-05-14T06:53:29.058Z,11.17
2019-05-14T06:55:58.779Z,9.70
2019-05-14T06:58:29.842Z,12.80
2019-05-14T07:00:58.763Z,9.90
2019-05-14T07:03:28.149Z,8.73
2019-05-14T07:05:59.391Z,11.65
2019-05-14T07:08:28.555Z,10.70
2019-05-14T07:10:59.269Z,8.93
2019-05-14T07:13:29.180Z,10.00
2019-05-14T07:15:58.533Z,10.03
2019-05-14T07:18:30.178Z,11.27
2019-05-14T07:20:58.845Z,14.00
2019-05-14T07:23:29.024Z,11.23
2019-05-14T07:25:58.959Z,14.00
2019-05-14T07:28:28.844Z,12.25
2019-05-14T07:30:59.327Z,11.80
2019-05-14T07:33:29.267Z,13.40
2019-05-14T07:35:59.366Z,11.50
2019-05-14T07:38:28.470Z,10.13
2019-05-14T07:40:58.546Z,24.47
2019-05-14T07:43:28.802Z,13.30
2019-05-14T07:45:58.255Z,12.00
2019-05-14T07:48:28.802Z,13.37
2019-05-14T07:50:59.884Z,15.90
2019-05-14T07:53:38.080Z,10.07
2019-05-14T07:55:59.217Z,13.60
2019-05-14T07:58:28.366Z,13.83
2019-05-14T08:00:58.588Z,12.63
2019-05-14T08:03:28.584Z,12.70
2019-05-14T08:05:58.807Z,9.37
2019-05-14T08:08:29.262Z,10.87
2019-05-14T08:10:59.235Z,12.00
2019-05-14T08:13:28.458Z,11.90
2019-05-14T08:15:58.504Z,11.20
2019-05-14T08:18:29.015Z,13.23
2019-05-14T08:20:59.187Z,11.87
2019-05-14T08:23:28.757Z,13.47
2019-05-14T08:25:58.665Z,14.37
2019-05-14T08:28:29.068Z,13.47
2019-05-14T08:30:58.494Z,13.87
2019-05-14T08:33:29.056Z,13.95
2019-05-14T08:35:58.200Z,12.80
2019-05-14T08:38:28.461Z,16.00
2019-05-14T08:40:58.984Z,14.67
2019-05-14T08:43:29.194Z,17.47
2019-05-14T08:45:58.785Z,16.90
2019-05-14T08:48:29.679Z,12.83
2019-05-14T08:50:58.738Z,16.00
2019-05-14T08:53:28.833Z,14.53
2019-05-14T08:55:58.912Z,14.40
2019-05-14T08:58:30.001Z,12.67
2019-05-14T09:00:58.762Z,13.80
2019-05-14T09:03:28.787Z,13.20
2019-05-14T09:06:00.614Z,14.13
2019-05-14T09:08:28.442Z,14.80
2019-05-14T09:10:59.083Z,14.33
2019-05-14T09:13:28.994Z,13.90
2019-05-14T09:15:58.472Z,14.33
2019-05-14T09:18:29.112Z,14.00
2019-05-14T09:20:58.201Z,14.10
2019-05-14T09:23:28.636Z,11.83
2019-05-14T09:25:58.763Z,12.40
2019-05-14T09:28:28.512Z,18.90
2019-05-14T09:30:59.580Z,15.23
2019-05-14T09:33:29.590Z,12.98
2019-05-14T09:36:11.090Z,14.90
2019-05-14T09:38:29.338Z,15.80
2019-05-14T09:41:10.372Z,11.17
2019-05-14T09:43:28.731Z,13.10
2019-05-14T09:45:58.796Z,16.73
2019-05-14T09:48:28.708Z,13.80
2019-05-14T09:50:58.610Z,11.73
2019-05-14T09:53:28.895Z,9.70
2019-05-14T09:55:58.394Z,13.67
2019-05-14T09:58:28.191Z,12.23
2019-05-14T10:00:59.139Z,11.38
2019-05-14T10:03:27.675Z,13.10
2019-05-14T10:05:59.015Z,10.93
2019-05-14T10:08:28.582Z,12.53
2019-05-14T10:11:00.007Z,14.83
2019-05-14T10:13:28.228Z,12.57
2019-05-14T10:15:58.872Z,9.70
2019-05-14T10:18:28.456Z,7.90
2019-05-14T10:20:58.975Z,8.97
2019-05-14T10:23:28.363Z,10.17
2019-05-14T10:25:58.100Z,11.17
2019-05-14T10:28:28.782Z,9.03
2019-05-14T10:30:59.953Z,12.30
2019-05-14T10:33:28.756Z,12.87
2019-05-14T10:35:58.840Z,11.20
2019-05-14T10:38:29.556Z,11.57
2019-05-14T10:40:58.520Z,8.37
2019-05-14T10:43:28.842Z,9.50
2019-05-14T10:45:58.050Z,13.33
2019-05-14T10:48:29.118Z,11.90
2019-05-14T10:51:03.380Z,15.83
2019-05-14T10:53:28.944Z,13.77
2019-05-14T10:55:58.399Z,12.80
2019-05-14T10:58:29.106Z,14.07
2019-05-14T11:00:58.980Z,13.10
2019-05-14T11:03:30.032Z,12.67
2019-05-14T11:05:58.779Z,16.27
2019-05-14T11:08:29.569Z,15.63
2019-05-14T11:11:03.615Z,12.73
2019-05-14T11:13:29.408Z,13.93
2019-05-14T11:15:59.605Z,16.43
2019-05-14T11:18:29.233Z,14.43
2019-05-14T11:21:18.083Z,15.58
2019-05-14T11:23:29.748Z,14.67
2019-05-14T11:25:59.134Z,14.30
2019-05-14T11:28:28.682Z,11.73
2019-05-14T11:30:57.517Z,13.97
2019-05-14T11:33:29.524Z,13.47
2019-05-14T11:35:58.488Z,11.23
2019-05-14T11:38:33.832Z,12.47
2019-05-14T11:40:58.768Z,14.67
2019-05-14T11:43:28.645Z,11.73
2019-05-14T11:45:59.365Z,9.33
2019-05-14T11:48:27.805Z,11.33
2019-05-14T11:50:59.133Z,12.77
2019-05-14T11:53:45.910Z,12.73
2019-05-14T11:56:14.527Z,11.67
2019-05-14T11:58:43.191Z,15.10
2019-05-14T12:01:12.390Z,16.10
2019-05-14T12:03:40.993Z,14.57
2019-05-14T12:06:10.000Z,14.67
2019-05-14T12:08:41.763Z,14.83
2019-05-14T12:11:09.011Z,13.53
2019-05-14T12:13:39.461Z,16.00
2019-05-14T12:16:08.564Z,19.07
2019-05-14T12:18:41.342Z,20.10
2019-05-14T12:21:08.922Z,18.37
2019-05-14T12:23:39.376Z,16.10
2019-05-14T12:26:09.571Z,22.20
2019-05-14T12:28:38.797Z,15.90
2019-05-14T12:31:09.296Z,19.07
2019-05-14T12:33:39.536Z,19.23
2019-05-14T12:36:10.138Z,23.22
2019-05-14T12:38:38.954Z,17.77
2019-05-14T12:41:09.140Z,20.37
2019-05-14T12:43:39.723Z,22.60
2019-05-14T12:46:10.616Z,24.33
2019-05-14T12:48:39.427Z,20.27
2019-05-14T12:51:09.070Z,21.95
2019-05-14T12:53:39.393Z,19.27
2019-05-14T12:56:08.702Z,19.33
2019-05-14T12:58:44.617Z,17.77
2019-05-14T13:01:08.911Z,15.73
2019-05-14T13:03:38.152Z,16.53
2019-05-14T13:06:09.662Z,14.00
2019-05-14T13:08:38.680Z,16.37
2019-05-14T13:11:09.649Z,15.73
2019-05-14T13:13:42.298Z,14.63
2019-05-14T13:16:08.360Z,13.97
2019-05-14T13:18:38.761Z,14.97
2019-05-14T13:21:07.233Z,13.80
2019-05-14T13:23:38.118Z,16.47
2019-05-14T13:26:06.103Z,14.53
2019-05-14T13:28:34.769Z,16.17
2019-05-14T13:31:03.380Z,12.50
2019-05-14T13:33:31.973Z,15.70
2019-05-14T13:36:00.596Z,13.17
2019-05-14T13:38:29.273Z,15.17
2019-05-14T13:40:59.446Z,14.67
2019-05-14T13:43:30.547Z,16.23
2019-05-14T13:45:59.688Z,15.27
2019-05-14T13:48:29.680Z,15.08
2019-05-14T13:50:58.564Z,14.20
2019-05-14T13:53:29.602Z,12.40
2019-05-14T13:55:58.067Z,15.13
2019-05-14T13:58:28.636Z,12.47
2019-05-14T14:00:59.217Z,16.07
2019-05-14T14:03:29.226Z,14.30
2019-05-14T14:05:59.392Z,11.93
2019-05-14T14:08:29.248Z,11.87
2019-05-14T14:11:02.639Z,11.73
2019-05-14T14:13:28.565Z,13.60
2019-05-14T14:15:58.877Z,12.13
2019-05-14T14:18:29.333Z,10.87
2019-05-14T14:20:57.777Z,11.47
2019-05-14T14:23:30.394Z,13.07
2019-05-14T14:25:59.553Z,12.80
2019-05-14T14:28:28.497Z,13.00
2019-05-14T14:30:57.446Z,12.50
2019-05-14T14:33:28.726Z,14.17
2019-05-14T14:35:58.391Z,17.60
2019-05-14T14:38:29.163Z,12.20
2019-05-14T14:40:58.222Z,11.77
2019-05-14T14:43:29.208Z,12.25
2019-05-14T14:45:59.409Z,13.17
2019-05-14T14:48:30.366Z,11.73
2019-05-14T14:50:58.648Z,13.93
2019-05-14T14:53:42.878Z,15.50
2019-05-14T14:56:00.327Z,15.13
2019-05-14T14:58:31.001Z,13.97
2019-05-14T15:00:59.718Z,16.07
2019-05-14T15:03:30.031Z,15.10
2019-05-14T15:06:01.349Z,15.53
2019-05-14T15:08:30.023Z,14.40
2019-05-14T15:10:59.317Z,16.47
2019-05-14T15:13:28.186Z,15.50
2019-05-14T15:15:57.046Z,16.12
2019-05-14T15:18:25.607Z,14.50
2019-05-14T15:20:54.177Z,15.67
2019-05-14T15:23:22.787Z,14.03
2019-05-14T15:25:55.683Z,13.93
2019-05-14T15:28:24.200Z,15.27
2019-05-14T15:30:55.890Z,14.13
2019-05-14T15:33:24.437Z,14.77
2019-05-14T15:35:53.114Z,16.27
2019-05-14T15:38:21.862Z,16.17
2019-05-14T15:40:50.414Z,15.13
2019-05-14T15:43:19.071Z,21.30
2019-05-14T15:45:48.313Z,21.90
2019-05-14T15:48:19.695Z,20.70
2019-05-14T15:50:49.923Z,16.43
2019-05-14T15:53:19.489Z,16.03
2019-05-14T15:55:49.046Z,13.30
2019-05-14T15:58:21.381Z,12.90
2019-05-14T16:00:48.206Z,10.70
2019-05-14T16:03:18.652Z,13.40
2019-05-14T16:05:48.846Z,11.60
2019-05-14T16:08:22.190Z,13.83
2019-05-14T16:10:47.529Z,15.23
2019-05-14T16:13:16.096Z,14.73
2019-05-14T16:15:45.096Z,17.33
2019-05-14T16:18:18.700Z,14.97
2019-05-14T16:20:44.879Z,19.90
2019-05-14T16:23:13.489Z,17.63
2019-05-14T16:25:42.164Z,19.33
2019-05-14T16:28:10.717Z,16.30
2019-05-14T16:30:39.812Z,15.53
2019-05-14T16:33:09.306Z,16.93
2019-05-14T16:35:39.284Z,15.40
2019-05-14T16:38:08.458Z,16.37
2019-05-14T16:40:39.536Z,16.10
2019-05-14T16:43:07.410Z,14.37
2019-05-14T16:45:39.605Z,13.93
2019-05-14T16:48:10.859Z,14.13
2019-05-14T16:50:38.773Z,11.00
2019-05-14T16:53:11.339Z,11.93
2019-05-14T16:55:38.467Z,11.33
2019-05-14T16:58:08.970Z,10.63
2019-05-14T17:00:37.634Z,9.05
2019-05-14T17:03:08.271Z,11.40
2019-05-14T17:05:38.167Z,10.70
2019-05-14T17:08:09.920Z,8.03
2019-05-14T17:10:38.936Z,8.50
2019-05-14T17:13:09.106Z,9.63
2019-05-14T17:15:39.357Z,9.20
2019-05-14T17:18:08.872Z,9.87
2019-05-14T17:20:39.477Z,11.47
2019-05-14T17:23:09.075Z,12.50
2019-05-14T17:25:39.135Z,13.47
2019-05-14T17:28:08.502Z,13.43
2019-05-14T17:30:38.600Z,16.47
2019-05-14T17:33:09.565Z,16.73
2019-05-14T17:35:38.974Z,11.87
2019-05-14T17:38:09.223Z,12.03
2019-05-14T17:40:39.710Z,10.17
2019-05-14T17:43:08.743Z,8.08
2019-05-14T17:45:39.090Z,7.93
2019-05-14T17:48:08.370Z,10.43
2019-05-14T17:50:38.402Z,9.57
2019-05-14T17:53:09.726Z,9.83
2019-05-14T17:55:47.110Z,9.60
2019-05-14T17:58:13.162Z,8.50
2019-05-14T18:00:38.393Z,8.47
2019-05-14T18:03:08.719Z,7.93
2019-05-14T18:05:37.478Z,9.20
2019-05-14T18:08:06.086Z,9.10
2019-05-14T18:10:34.642Z,8.83
2019-05-14T18:13:03.335Z,9.07
2019-05-14T18:15:31.950Z,8.40
2019-05-14T18:18:00.551Z,8.37
2019-05-14T18:20:29.286Z,9.80
2019-05-14T18:22:58.438Z,10.33
2019-05-14T18:25:29.143Z,10.70
2019-05-14T18:27:57.395Z,10.37
2019-05-14T18:30:28.680Z,11.00
2019-05-14T18:32:58.410Z,11.83
2019-05-14T18:35:30.226Z,11.37
2019-05-14T18:37:58.852Z,14.70
2019-05-14T18:40:28.133Z,12.33
2019-05-14T18:42:59.081Z,12.67
2019-05-14T18:45:29.356Z,14.13
2019-05-14T18:47:59.099Z,12.90
2019-05-14T18:50:28.802Z,14.33
2019-05-14T18:52:59.787Z,14.27
2019-05-14T18:55:29.277Z,15.03
2019-05-14T18:57:59.310Z,14.60
2019-05-14T19:00:29.397Z,13.32
2019-05-14T19:02:58.387Z,14.93
2019-05-14T19:05:29.215Z,14.97
2019-05-14T19:07:59.307Z,14.37
2019-05-14T19:10:28.495Z,14.85
2019-05-14T19:12:58.806Z,18.33
2019-05-14T19:15:27.703Z,18.33
2019-05-14T19:18:00.458Z,16.57
2019-05-14T19:20:28.371Z,18.80
2019-05-14T19:22:57.174Z,25.03
2019-05-14T19:25:25.762Z,20.97
2019-05-14T19:27:58.160Z,16.27
2019-05-14T19:30:28.475Z,18.73
2019-05-14T19:32:56.602Z,18.07
2019-05-14T19:35:25.222Z,18.13
2019-05-14T19:37:54.308Z,19.25
2019-05-14T19:40:22.792Z,18.43
2019-05-14T19:42:51.438Z,21.30
2019-05-14T19:45:20.317Z,18.63
2019-05-14T19:47:49.334Z,19.50
2019-05-14T19:50:18.756Z,17.92
2019-05-14T19:52:48.744Z,17.43
2019-05-14T19:55:18.859Z,19.32
2019-05-14T19:57:49.038Z,18.97
2019-05-14T20:00:25.855Z,19.80
2019-05-14T20:02:54.417Z,18.23
2019-05-14T20:05:22.967Z,19.90
2019-05-14T20:07:51.533Z,18.50
2019-05-14T20:10:20.199Z,20.17
2019-05-14T20:12:48.780Z,20.57
2019-05-14T20:15:17.365Z,21.00
2019-05-14T20:17:46.007Z,22.93
2019-05-14T20:20:14.911Z,20.33
2019-05-14T20:22:44.536Z,23.47
2019-05-14T20:25:13.353Z,24.77
2019-05-14T20:27:42.312Z,21.67
2019-05-14T20:30:11.678Z,21.53
2019-05-14T20:32:40.233Z,22.27
2019-05-14T20:35:09.298Z,20.77
2019-05-14T20:37:38.900Z,21.03
2019-05-14T20:40:08.900Z,20.00
2019-05-14T20:42:39.323Z,21.50
2019-05-14T20:45:08.098Z,21.37
2019-05-14T20:47:38.749Z,21.33
2019-05-14T20:50:08.899Z,21.23
2019-05-14T20:52:37.926Z,19.37
2019-05-14T20:55:09.497Z,18.65
2019-05-14T20:57:38.597Z,19.77
2019-05-14T21:00:11.365Z,18.43
2019-05-14T21:02:39.520Z,15.70
2019-05-14T21:05:13.557Z,16.03
2019-05-14T21:07:40.169Z,16.07
2019-05-14T21:10:09.188Z,17.83
2019-05-14T21:12:39.399Z,17.90
2019-05-14T21:15:28.701Z,17.47
2019-05-14T21:17:59.564Z,17.27
2019-05-14T21:20:28.404Z,15.07
2019-05-14T21:22:58.449Z,16.83
2019-05-14T21:25:29.328Z,14.87
2019-05-14T21:27:58.735Z,15.85
2019-05-14T21:30:29.569Z,15.20
2019-05-14T21:33:00.144Z,15.07
2019-05-14T21:35:33.547Z,14.67
2019-05-14T21:38:02.118Z,17.80
2019-05-14T21:40:32.162Z,16.13
2019-05-14T21:43:00.887Z,14.87
2019-05-14T21:45:29.564Z,15.30
2019-05-14T21:47:59.445Z,16.20
2019-05-14T21:50:28.904Z,18.07
2019-05-14T21:52:59.705Z,14.60
2019-05-14T21:55:28.882Z,14.87
2019-05-14T21:57:57.693Z,16.37
2019-05-14T22:00:38.271Z,17.53
2019-05-14T22:03:06.117Z,19.77
2019-05-14T22:05:54.044Z,16.03
2019-05-14T22:08:22.648Z,19.07
2019-05-14T22:11:10.811Z,20.20
2019-05-14T22:13:39.812Z,22.90
2019-05-14T22:16:08.754Z,20.50
2019-05-14T22:18:38.905Z,22.73
2019-05-14T22:21:08.974Z,21.70
2019-05-14T22:23:38.792Z,23.90
2019-05-14T22:26:07.973Z,22.83
2019-05-14T22:28:37.415Z,20.23
2019-05-14T22:31:08.844Z,22.93
2019-05-14T22:33:38.257Z,21.93
2019-05-14T22:36:08.531Z,21.20
2019-05-14T22:38:38.741Z,21.20
2019-05-14T22:41:08.719Z,18.53
2019-05-14T22:43:38.380Z,23.03
2019-05-14T22:46:08.427Z,18.77
2019-05-14T22:48:37.151Z,18.03
2019-05-14T22:51:05.772Z,19.95
2019-05-14T22:53:34.362Z,19.37
2019-05-14T22:56:03.241Z,19.07
2019-05-14T22:58:31.886Z,19.20
2019-05-14T23:01:13.896Z,18.37
2019-05-14T23:03:30.718Z,17.27
2019-05-14T23:05:59.284Z,18.90
2019-05-14T23:08:27.902Z,20.62
2019-05-14T23:10:58.809Z,18.73
2019-05-14T23:13:28.070Z,18.17
2019-05-14T23:15:58.735Z,23.83
2019-05-14T23:18:28.744Z,18.33
2019-05-14T23:20:59.092Z,17.50
2019-05-14T23:23:29.267Z,17.47
2019-05-14T23:25:58.921Z,18.47
2019-05-14T23:28:39.533Z,16.80
2019-05-14T23:30:58.841Z,15.90
2019-05-14T23:33:28.819Z,17.63
2019-05-14T23:35:57.685Z,16.37
2019-05-14T23:38:28.815Z,16.27
2019-05-14T23:40:58.787Z,18.13
2019-05-14T23:43:28.795Z,21.03
2019-05-14T23:45:58.391Z,17.57
2019-05-14T23:48:27.064Z,19.23
2019-05-14T23:50:58.326Z,19.65
2019-05-14T23:53:26.456Z,18.43
2019-05-14T23:55:55.083Z,18.23
2019-05-14T23:58:23.778Z,19.63
